sensor_id;sensor_type;location;lat;lon;timestamp;P1;durP1;ratioP1;P2;durP2;ratioP2
15246;SDS011;7726;48.820;9.248;2023-10-31T00:01:26;1.75;;;0.60;;
15246;SDS011;7726;48.820;9.248;2023-10-31T00:03:53;1.38;;;0.70;;
15246;SDS011;7726;48.820;9.248;2023-10-31T00:06:20;1.38;;;0.50;;
15246;SDS011;7726;48.820;9.248;2023-10-31T00:08:48;0.60;;;0.60;;
15246;SDS011;7726;48.820;9.248;2023-10-31T00:11:15;0.70;;;0.68;;
15246;SDS011;7726;48.820;9.248;2023-10-31T00:13:43;0.57;;;0.57;;
15246;SDS011;7726;48.820;9.248;2023-10-31T00:16:10;0.93;;;0.85;;
15246;SDS011;7726;48.820;9.248;2023-10-31T00:18:37;1.02;;;0.68;;
15246;SDS011;7726;48.820;9.248;2023-10-31T00:21:04;0.55;;;0.25;;
15246;SDS011;7726;48.820;9.248;2023-10-31T00:23:32;0.50;;;0.50;;
15246;SDS011;7726;48.820;9.248;2023-10-31T00:26:00;1.00;;;0.57;;
15246;SDS011;7726;48.820;9.248;2023-10-31T00:28:27;0.50;;;0.40;;
15246;SDS011;7726;48.820;9.248;2023-10-31T00:30:54;0.52;;;0.50;;
15246;SDS011;7726;48.820;9.248;2023-10-31T00:33:21;0.30;;;0.30;;
15246;SDS011;7726;48.820;9.248;2023-10-31T00:35:49;0.50;;;0.50;;
15246;SDS011;7726;48.820;9.248;2023-10-31T00:38:16;0.68;;;0.68;;
15246;SDS011;7726;48.820;9.248;2023-10-31T00:40:43;0.55;;;0.40;;
15246;SDS011;7726;48.820;9.248;2023-10-31T00:43:11;0.50;;;0.50;;
15246;SDS011;7726;48.820;9.248;2023-10-31T00:45:39;0.32;;;0.32;;
15246;SDS011;7726;48.820;9.248;2023-10-31T00:48:06;0.30;;;0.30;;
15246;SDS011;7726;48.820;9.248;2023-10-31T00:50:33;0.77;;;0.40;;
15246;SDS011;7726;48.820;9.248;2023-10-31T00:53:00;0.25;;;0.25;;
15246;SDS011;7726;48.820;9.248;2023-10-31T00:55:27;0.20;;;0.20;;
15246;SDS011;7726;48.820;9.248;2023-10-31T00:57:54;0.30;;;0.10;;
15246;SDS011;7726;48.820;9.248;2023-10-31T01:00:23;0.35;;;0.35;;
15246;SDS011;7726;48.820;9.248;2023-10-31T01:02:50;0.50;;;0.30;;
15246;SDS011;7726;48.820;9.248;2023-10-31T01:05:17;0.40;;;0.40;;
15246;SDS011;7726;48.820;9.248;2023-10-31T01:07:45;0.47;;;0.40;;
15246;SDS011;7726;48.820;9.248;2023-10-31T01:10:12;0.73;;;0.45;;
15246;SDS011;7726;48.820;9.248;2023-10-31T01:12:39;1.08;;;0.30;;
15246;SDS011;7726;48.820;9.248;2023-10-31T01:15:06;0.43;;;0.30;;
15246;SDS011;7726;48.820;9.248;2023-10-31T01:17:35;0.45;;;0.40;;
15246;SDS011;7726;48.820;9.248;2023-10-31T01:20:02;0.35;;;0.35;;
15246;SDS011;7726;48.820;9.248;2023-10-31T01:22:29;0.63;;;0.38;;
15246;SDS011;7726;48.820;9.248;2023-10-31T01:24:56;1.85;;;0.50;;
15246;SDS011;7726;48.820;9.248;2023-10-31T01:27:23;0.95;;;0.65;;
15246;SDS011;7726;48.820;9.248;2023-10-31T01:29:51;2.17;;;0.50;;
15246;SDS011;7726;48.820;9.248;2023-10-31T01:32:18;0.40;;;0.40;;
15246;SDS011;7726;48.820;9.248;2023-10-31T01:34:46;0.35;;;0.35;;
15246;SDS011;7726;48.820;9.248;2023-10-31T01:37:13;1.50;;;0.68;;
15246;SDS011;7726;48.820;9.248;2023-10-31T01:39:40;1.55;;;0.60;;
15246;SDS011;7726;48.820;9.248;2023-10-31T01:42:08;0.63;;;0.63;;
15246;SDS011;7726;48.820;9.248;2023-10-31T01:44:35;1.05;;;0.50;;
15246;SDS011;7726;48.820;9.248;2023-10-31T01:47:02;1.27;;;0.50;;
15246;SDS011;7726;48.820;9.248;2023-10-31T01:49:30;2.13;;;0.47;;
15246;SDS011;7726;48.820;9.248;2023-10-31T01:51:59;0.50;;;0.50;;
15246;SDS011;7726;48.820;9.248;2023-10-31T01:54:27;0.60;;;0.40;;
15246;SDS011;7726;48.820;9.248;2023-10-31T01:56:54;1.70;;;0.80;;
15246;SDS011;7726;48.820;9.248;2023-10-31T01:59:23;1.10;;;0.77;;
15246;SDS011;7726;48.820;9.248;2023-10-31T02:01:50;1.08;;;0.65;;
15246;SDS011;7726;48.820;9.248;2023-10-31T02:04:17;0.38;;;0.30;;
15246;SDS011;7726;48.820;9.248;2023-10-31T02:06:44;0.45;;;0.45;;
15246;SDS011;7726;48.820;9.248;2023-10-31T02:09:13;0.90;;;0.47;;
15246;SDS011;7726;48.820;9.248;2023-10-31T02:11:40;0.40;;;0.40;;
15246;SDS011;7726;48.820;9.248;2023-10-31T02:14:07;0.60;;;0.52;;
15246;SDS011;7726;48.820;9.248;2023-10-31T02:16:34;1.83;;;0.47;;
15246;SDS011;7726;48.820;9.248;2023-10-31T02:19:01;0.40;;;0.40;;
15246;SDS011;7726;48.820;9.248;2023-10-31T02:21:29;2.03;;;0.50;;
15246;SDS011;7726;48.820;9.248;2023-10-31T02:23:58;0.30;;;0.30;;
15246;SDS011;7726;48.820;9.248;2023-10-31T02:26:28;0.77;;;0.40;;
15246;SDS011;7726;48.820;9.248;2023-10-31T02:28:55;1.27;;;0.30;;
15246;SDS011;7726;48.820;9.248;2023-10-31T02:31:23;0.47;;;0.47;;
15246;SDS011;7726;48.820;9.248;2023-10-31T02:33:50;0.55;;;0.55;;
15246;SDS011;7726;48.820;9.248;2023-10-31T02:36:17;2.15;;;0.40;;
15246;SDS011;7726;48.820;9.248;2023-10-31T02:38:44;0.52;;;0.32;;
15246;SDS011;7726;48.820;9.248;2023-10-31T02:41:13;0.85;;;0.60;;
15246;SDS011;7726;48.820;9.248;2023-10-31T02:43:41;1.15;;;0.40;;
15246;SDS011;7726;48.820;9.248;2023-10-31T02:46:08;0.55;;;0.55;;
15246;SDS011;7726;48.820;9.248;2023-10-31T02:48:37;1.17;;;0.30;;
15246;SDS011;7726;48.820;9.248;2023-10-31T02:51:05;1.70;;;0.50;;
15246;SDS011;7726;48.820;9.248;2023-10-31T02:53:32;1.73;;;0.47;;
15246;SDS011;7726;48.820;9.248;2023-10-31T02:55:59;0.95;;;0.50;;
15246;SDS011;7726;48.820;9.248;2023-10-31T02:58:28;0.60;;;0.60;;
15246;SDS011;7726;48.820;9.248;2023-10-31T03:00:55;1.20;;;0.35;;
15246;SDS011;7726;48.820;9.248;2023-10-31T03:03:22;0.75;;;0.52;;
15246;SDS011;7726;48.820;9.248;2023-10-31T03:05:49;0.50;;;0.50;;
15246;SDS011;7726;48.820;9.248;2023-10-31T03:08:16;0.98;;;0.60;;
15246;SDS011;7726;48.820;9.248;2023-10-31T03:10:45;2.28;;;0.50;;
15246;SDS011;7726;48.820;9.248;2023-10-31T03:13:14;0.85;;;0.60;;
15246;SDS011;7726;48.820;9.248;2023-10-31T03:15:43;0.93;;;0.80;;
15246;SDS011;7726;48.820;9.248;2023-10-31T03:18:10;1.23;;;0.43;;
15246;SDS011;7726;48.820;9.248;2023-10-31T03:20:39;1.20;;;0.38;;
15246;SDS011;7726;48.820;9.248;2023-10-31T03:23:06;4.90;;;0.50;;
15246;SDS011;7726;48.820;9.248;2023-10-31T03:25:33;0.47;;;0.40;;
15246;SDS011;7726;48.820;9.248;2023-10-31T03:28:01;2.20;;;0.50;;
15246;SDS011;7726;48.820;9.248;2023-10-31T03:30:28;0.55;;;0.55;;
15246;SDS011;7726;48.820;9.248;2023-10-31T03:32:57;0.40;;;0.40;;
15246;SDS011;7726;48.820;9.248;2023-10-31T03:35:24;1.20;;;0.70;;
15246;SDS011;7726;48.820;9.248;2023-10-31T03:37:51;0.70;;;0.50;;
15246;SDS011;7726;48.820;9.248;2023-10-31T03:40:18;1.37;;;0.50;;
15246;SDS011;7726;48.820;9.248;2023-10-31T03:42:45;0.43;;;0.43;;
15246;SDS011;7726;48.820;9.248;2023-10-31T03:45:12;1.90;;;0.60;;
15246;SDS011;7726;48.820;9.248;2023-10-31T03:47:39;0.60;;;0.60;;
15246;SDS011;7726;48.820;9.248;2023-10-31T03:50:08;1.40;;;0.68;;
15246;SDS011;7726;48.820;9.248;2023-10-31T03:52:36;1.35;;;0.60;;
15246;SDS011;7726;48.820;9.248;2023-10-31T03:55:03;0.63;;;0.57;;
15246;SDS011;7726;48.820;9.248;2023-10-31T03:57:30;1.42;;;0.50;;
15246;SDS011;7726;48.820;9.248;2023-10-31T03:59:58;0.52;;;0.52;;
15246;SDS011;7726;48.820;9.248;2023-10-31T04:02:25;1.65;;;0.60;;
15246;SDS011;7726;48.820;9.248;2023-10-31T04:04:52;1.05;;;0.73;;
15246;SDS011;7726;48.820;9.248;2023-10-31T04:07:20;0.50;;;0.50;;
15246;SDS011;7726;48.820;9.248;2023-10-31T04:09:47;1.73;;;0.80;;
15246;SDS011;7726;48.820;9.248;2023-10-31T04:12:15;0.55;;;0.55;;
15246;SDS011;7726;48.820;9.248;2023-10-31T04:14:42;0.63;;;0.60;;
15246;SDS011;7726;48.820;9.248;2023-10-31T04:17:09;0.82;;;0.82;;
15246;SDS011;7726;48.820;9.248;2023-10-31T04:19:36;2.38;;;0.70;;
15246;SDS011;7726;48.820;9.248;2023-10-31T04:22:03;1.75;;;0.82;;
15246;SDS011;7726;48.820;9.248;2023-10-31T04:24:32;0.80;;;0.80;;
15246;SDS011;7726;48.820;9.248;2023-10-31T04:26:59;0.95;;;0.80;;
15246;SDS011;7726;48.820;9.248;2023-10-31T04:29:26;2.17;;;0.95;;
15246;SDS011;7726;48.820;9.248;2023-10-31T04:31:53;0.70;;;0.70;;
15246;SDS011;7726;48.820;9.248;2023-10-31T04:34:20;2.63;;;1.00;;
15246;SDS011;7726;48.820;9.248;2023-10-31T04:36:47;1.20;;;0.82;;
15246;SDS011;7726;48.820;9.248;2023-10-31T04:39:15;0.88;;;0.88;;
15246;SDS011;7726;48.820;9.248;2023-10-31T04:41:43;1.30;;;0.90;;
15246;SDS011;7726;48.820;9.248;2023-10-31T04:44:10;2.00;;;0.80;;
15246;SDS011;7726;48.820;9.248;2023-10-31T04:46:37;0.80;;;0.80;;
15246;SDS011;7726;48.820;9.248;2023-10-31T04:49:05;1.00;;;1.00;;
15246;SDS011;7726;48.820;9.248;2023-10-31T04:51:35;1.17;;;0.70;;
15246;SDS011;7726;48.820;9.248;2023-10-31T04:54:02;0.80;;;0.80;;
15246;SDS011;7726;48.820;9.248;2023-10-31T04:56:29;2.40;;;0.75;;
15246;SDS011;7726;48.820;9.248;2023-10-31T04:58:58;0.52;;;0.50;;
15246;SDS011;7726;48.820;9.248;2023-10-31T05:01:25;0.55;;;0.45;;
15246;SDS011;7726;48.820;9.248;2023-10-31T05:03:52;0.60;;;0.60;;
15246;SDS011;7726;48.820;9.248;2023-10-31T05:06:19;1.03;;;0.70;;
15246;SDS011;7726;48.820;9.248;2023-10-31T05:08:46;0.60;;;0.60;;
15246;SDS011;7726;48.820;9.248;2023-10-31T05:11:14;2.60;;;0.85;;
15246;SDS011;7726;48.820;9.248;2023-10-31T05:13:43;1.38;;;0.75;;
15246;SDS011;7726;48.820;9.248;2023-10-31T05:16:11;2.55;;;0.70;;
15246;SDS011;7726;48.820;9.248;2023-10-31T05:18:39;2.55;;;1.08;;
15246;SDS011;7726;48.820;9.248;2023-10-31T05:21:06;3.17;;;0.90;;
15246;SDS011;7726;48.820;9.248;2023-10-31T05:23:33;0.60;;;0.60;;
15246;SDS011;7726;48.820;9.248;2023-10-31T05:26:00;1.02;;;0.82;;
15246;SDS011;7726;48.820;9.248;2023-10-31T05:28:27;1.42;;;0.73;;
15246;SDS011;7726;48.820;9.248;2023-10-31T05:30:54;0.68;;;0.65;;
15246;SDS011;7726;48.820;9.248;2023-10-31T05:33:23;1.63;;;0.60;;
15246;SDS011;7726;48.820;9.248;2023-10-31T05:35:50;2.63;;;0.70;;
15246;SDS011;7726;48.820;9.248;2023-10-31T05:38:17;0.73;;;0.70;;
15246;SDS011;7726;48.820;9.248;2023-10-31T05:40:44;1.13;;;0.70;;
15246;SDS011;7726;48.820;9.248;2023-10-31T05:43:12;1.15;;;0.75;;
15246;SDS011;7726;48.820;9.248;2023-10-31T05:45:39;0.85;;;0.68;;
15246;SDS011;7726;48.820;9.248;2023-10-31T05:48:06;0.57;;;0.57;;
15246;SDS011;7726;48.820;9.248;2023-10-31T05:50:34;0.70;;;0.70;;
15246;SDS011;7726;48.820;9.248;2023-10-31T05:53:01;1.07;;;0.83;;
15246;SDS011;7726;48.820;9.248;2023-10-31T05:55:29;1.25;;;0.80;;
15246;SDS011;7726;48.820;9.248;2023-10-31T05:57:56;2.17;;;0.90;;
15246;SDS011;7726;48.820;9.248;2023-10-31T06:00:23;1.17;;;0.63;;
15246;SDS011;7726;48.820;9.248;2023-10-31T06:02:51;2.10;;;0.70;;
15246;SDS011;7726;48.820;9.248;2023-10-31T06:05:18;0.80;;;0.70;;
15246;SDS011;7726;48.820;9.248;2023-10-31T06:07:46;2.08;;;0.60;;
15246;SDS011;7726;48.820;9.248;2023-10-31T06:10:13;0.60;;;0.60;;
15246;SDS011;7726;48.820;9.248;2023-10-31T06:12:40;0.50;;;0.50;;
15246;SDS011;7726;48.820;9.248;2023-10-31T06:15:08;1.75;;;0.63;;
15246;SDS011;7726;48.820;9.248;2023-10-31T06:17:35;0.40;;;0.40;;
15246;SDS011;7726;48.820;9.248;2023-10-31T06:20:02;0.43;;;0.37;;
15246;SDS011;7726;48.820;9.248;2023-10-31T06:22:31;1.20;;;0.82;;
15246;SDS011;7726;48.820;9.248;2023-10-31T06:24:59;0.70;;;0.70;;
15246;SDS011;7726;48.820;9.248;2023-10-31T06:27:27;1.23;;;0.70;;
15246;SDS011;7726;48.820;9.248;2023-10-31T06:29:54;0.60;;;0.60;;
15246;SDS011;7726;48.820;9.248;2023-10-31T06:32:21;0.90;;;0.60;;
15246;SDS011;7726;48.820;9.248;2023-10-31T06:34:48;1.13;;;0.60;;
15246;SDS011;7726;48.820;9.248;2023-10-31T06:37:15;1.02;;;0.45;;
15246;SDS011;7726;48.820;9.248;2023-10-31T06:39:42;0.60;;;0.60;;
15246;SDS011;7726;48.820;9.248;2023-10-31T06:42:11;1.47;;;0.70;;
15246;SDS011;7726;48.820;9.248;2023-10-31T06:44:39;0.50;;;0.50;;
15246;SDS011;7726;48.820;9.248;2023-10-31T06:47:06;3.07;;;0.70;;
15246;SDS011;7726;48.820;9.248;2023-10-31T06:49:33;2.28;;;0.65;;
15246;SDS011;7726;48.820;9.248;2023-10-31T06:52:02;1.67;;;0.70;;
15246;SDS011;7726;48.820;9.248;2023-10-31T06:54:29;3.50;;;0.85;;
15246;SDS011;7726;48.820;9.248;2023-10-31T06:56:56;1.90;;;0.77;;
15246;SDS011;7726;48.820;9.248;2023-10-31T06:59:25;2.03;;;1.30;;
15246;SDS011;7726;48.820;9.248;2023-10-31T07:01:52;0.95;;;0.95;;
15246;SDS011;7726;48.820;9.248;2023-10-31T07:04:19;1.20;;;1.13;;
15246;SDS011;7726;48.820;9.248;2023-10-31T07:06:46;0.70;;;0.70;;
15246;SDS011;7726;48.820;9.248;2023-10-31T07:09:13;0.80;;;0.80;;
15246;SDS011;7726;48.820;9.248;2023-10-31T07:11:40;1.13;;;0.60;;
15246;SDS011;7726;48.820;9.248;2023-10-31T07:14:08;1.50;;;0.70;;
15246;SDS011;7726;48.820;9.248;2023-10-31T07:16:36;2.85;;;0.68;;
15246;SDS011;7726;48.820;9.248;2023-10-31T07:19:03;2.33;;;0.70;;
15246;SDS011;7726;48.820;9.248;2023-10-31T07:21:30;1.65;;;0.60;;
15246;SDS011;7726;48.820;9.248;2023-10-31T07:23:57;0.60;;;0.60;;
15246;SDS011;7726;48.820;9.248;2023-10-31T07:26:25;1.48;;;0.65;;
15246;SDS011;7726;48.820;9.248;2023-10-31T07:28:52;0.50;;;0.50;;
15246;SDS011;7726;48.820;9.248;2023-10-31T07:31:19;1.50;;;0.50;;
15246;SDS011;7726;48.820;9.248;2023-10-31T07:33:47;4.13;;;1.02;;
15246;SDS011;7726;48.820;9.248;2023-10-31T07:36:15;1.50;;;0.88;;
15246;SDS011;7726;48.820;9.248;2023-10-31T07:38:42;0.60;;;0.60;;
15246;SDS011;7726;48.820;9.248;2023-10-31T07:41:09;2.88;;;0.60;;
15246;SDS011;7726;48.820;9.248;2023-10-31T07:43:36;2.10;;;0.68;;
15246;SDS011;7726;48.820;9.248;2023-10-31T07:46:03;2.03;;;0.80;;
15246;SDS011;7726;48.820;9.248;2023-10-31T07:48:31;0.55;;;0.55;;
15246;SDS011;7726;48.820;9.248;2023-10-31T07:50:59;0.75;;;0.60;;
15246;SDS011;7726;48.820;9.248;2023-10-31T07:53:26;1.33;;;0.63;;
15246;SDS011;7726;48.820;9.248;2023-10-31T07:55:53;1.85;;;0.77;;
15246;SDS011;7726;48.820;9.248;2023-10-31T07:58:21;1.45;;;0.80;;
15246;SDS011;7726;48.820;9.248;2023-10-31T08:00:48;1.75;;;0.60;;
15246;SDS011;7726;48.820;9.248;2023-10-31T08:03:15;0.35;;;0.35;;
15246;SDS011;7726;48.820;9.248;2023-10-31T08:05:42;2.05;;;0.60;;
15246;SDS011;7726;48.820;9.248;2023-10-31T08:08:11;1.52;;;0.65;;
15246;SDS011;7726;48.820;9.248;2023-10-31T08:10:38;0.65;;;0.50;;
15246;SDS011;7726;48.820;9.248;2023-10-31T08:13:05;0.63;;;0.60;;
15246;SDS011;7726;48.820;9.248;2023-10-31T08:15:32;1.50;;;0.57;;
15246;SDS011;7726;48.820;9.248;2023-10-31T08:18:00;2.05;;;0.93;;
15246;SDS011;7726;48.820;9.248;2023-10-31T08:20:27;0.60;;;0.60;;
15246;SDS011;7726;48.820;9.248;2023-10-31T08:22:58;1.30;;;0.57;;
15246;SDS011;7726;48.820;9.248;2023-10-31T08:25:27;1.13;;;0.60;;
15246;SDS011;7726;48.820;9.248;2023-10-31T08:27:54;2.17;;;0.60;;
15246;SDS011;7726;48.820;9.248;2023-10-31T08:30:21;1.95;;;0.77;;
15246;SDS011;7726;48.820;9.248;2023-10-31T08:32:49;1.75;;;0.50;;
15246;SDS011;7726;48.820;9.248;2023-10-31T08:35:16;4.25;;;0.70;;
15246;SDS011;7726;48.820;9.248;2023-10-31T08:37:43;1.42;;;0.98;;
15246;SDS011;7726;48.820;9.248;2023-10-31T08:40:10;1.38;;;0.70;;
15246;SDS011;7726;48.820;9.248;2023-10-31T08:42:39;0.70;;;0.60;;
15246;SDS011;7726;48.820;9.248;2023-10-31T08:45:07;0.98;;;0.55;;
15246;SDS011;7726;48.820;9.248;2023-10-31T08:47:34;1.23;;;0.70;;
15246;SDS011;7726;48.820;9.248;2023-10-31T08:50:01;2.63;;;0.80;;
15246;SDS011;7726;48.820;9.248;2023-10-31T08:52:28;0.50;;;0.50;;
15246;SDS011;7726;48.820;9.248;2023-10-31T08:54:56;2.08;;;0.80;;
15246;SDS011;7726;48.820;9.248;2023-10-31T08:57:23;0.80;;;0.63;;
15246;SDS011;7726;48.820;9.248;2023-10-31T08:59:51;2.20;;;0.68;;
15246;SDS011;7726;48.820;9.248;2023-10-31T09:02:18;1.15;;;0.70;;
15246;SDS011;7726;48.820;9.248;2023-10-31T09:04:46;1.38;;;0.98;;
15246;SDS011;7726;48.820;9.248;2023-10-31T09:07:13;1.75;;;0.52;;
15246;SDS011;7726;48.820;9.248;2023-10-31T09:09:41;1.65;;;0.75;;
15246;SDS011;7726;48.820;9.248;2023-10-31T09:12:08;3.47;;;0.80;;
15246;SDS011;7726;48.820;9.248;2023-10-31T09:14:35;2.25;;;1.15;;
15246;SDS011;7726;48.820;9.248;2023-10-31T09:17:03;2.70;;;0.90;;
15246;SDS011;7726;48.820;9.248;2023-10-31T09:19:31;4.10;;;0.70;;
15246;SDS011;7726;48.820;9.248;2023-10-31T09:21:58;2.85;;;0.52;;
15246;SDS011;7726;48.820;9.248;2023-10-31T09:24:25;1.70;;;0.95;;
15246;SDS011;7726;48.820;9.248;2023-10-31T09:26:52;1.38;;;0.68;;
15246;SDS011;7726;48.820;9.248;2023-10-31T09:29:20;1.75;;;0.75;;
15246;SDS011;7726;48.820;9.248;2023-10-31T09:31:47;2.85;;;1.30;;
15246;SDS011;7726;48.820;9.248;2023-10-31T09:34:15;3.42;;;1.27;;
15246;SDS011;7726;48.820;9.248;2023-10-31T09:36:43;2.80;;;1.02;;
15246;SDS011;7726;48.820;9.248;2023-10-31T09:39:10;2.63;;;1.05;;
15246;SDS011;7726;48.820;9.248;2023-10-31T09:41:37;2.63;;;0.95;;
15246;SDS011;7726;48.820;9.248;2023-10-31T09:44:04;3.47;;;1.52;;
15246;SDS011;7726;48.820;9.248;2023-10-31T09:46:32;1.83;;;0.80;;
15246;SDS011;7726;48.820;9.248;2023-10-31T09:48:59;2.63;;;1.25;;
15246;SDS011;7726;48.820;9.248;2023-10-31T09:51:28;1.77;;;0.80;;
15246;SDS011;7726;48.820;9.248;2023-10-31T09:53:55;2.67;;;1.25;;
15246;SDS011;7726;48.820;9.248;2023-10-31T09:56:24;3.25;;;1.10;;
15246;SDS011;7726;48.820;9.248;2023-10-31T09:58:51;3.03;;;0.85;;
15246;SDS011;7726;48.820;9.248;2023-10-31T10:01:19;1.80;;;0.60;;
15246;SDS011;7726;48.820;9.248;2023-10-31T10:03:46;1.92;;;0.85;;
15246;SDS011;7726;48.820;9.248;2023-10-31T10:06:13;2.65;;;0.85;;
15246;SDS011;7726;48.820;9.248;2023-10-31T10:08:42;3.13;;;1.00;;
15246;SDS011;7726;48.820;9.248;2023-10-31T10:11:10;1.90;;;0.85;;
15246;SDS011;7726;48.820;9.248;2023-10-31T10:13:38;1.52;;;0.80;;
15246;SDS011;7726;48.820;9.248;2023-10-31T10:16:05;2.75;;;0.93;;
15246;SDS011;7726;48.820;9.248;2023-10-31T10:18:33;1.67;;;0.90;;
15246;SDS011;7726;48.820;9.248;2023-10-31T10:21:03;1.45;;;0.70;;
15246;SDS011;7726;48.820;9.248;2023-10-31T10:23:31;2.15;;;0.82;;
15246;SDS011;7726;48.820;9.248;2023-10-31T10:26:00;1.60;;;0.70;;
15246;SDS011;7726;48.820;9.248;2023-10-31T10:28:27;1.83;;;0.93;;
15246;SDS011;7726;48.820;9.248;2023-10-31T10:30:55;2.72;;;0.77;;
15246;SDS011;7726;48.820;9.248;2023-10-31T10:33:22;1.88;;;1.05;;
15246;SDS011;7726;48.820;9.248;2023-10-31T10:35:49;2.53;;;0.77;;
15246;SDS011;7726;48.820;9.248;2023-10-31T10:38:18;2.67;;;0.98;;
15246;SDS011;7726;48.820;9.248;2023-10-31T10:40:46;3.33;;;0.82;;
15246;SDS011;7726;48.820;9.248;2023-10-31T10:43:18;1.45;;;0.70;;
15246;SDS011;7726;48.820;9.248;2023-10-31T10:45:47;2.35;;;0.73;;
15246;SDS011;7726;48.820;9.248;2023-10-31T10:48:17;5.47;;;1.00;;
15246;SDS011;7726;48.820;9.248;2023-10-31T10:50:47;3.60;;;1.08;;
15246;SDS011;7726;48.820;9.248;2023-10-31T10:53:18;2.13;;;0.90;;
15246;SDS011;7726;48.820;9.248;2023-10-31T10:55:51;1.55;;;0.80;;
15246;SDS011;7726;48.820;9.248;2023-10-31T10:58:22;2.58;;;1.00;;
15246;SDS011;7726;48.820;9.248;2023-10-31T11:00:50;3.42;;;0.80;;
15246;SDS011;7726;48.820;9.248;2023-10-31T11:03:19;3.40;;;1.08;;
15246;SDS011;7726;48.820;9.248;2023-10-31T11:05:48;4.13;;;1.35;;
15246;SDS011;7726;48.820;9.248;2023-10-31T11:08:15;3.28;;;1.38;;
15246;SDS011;7726;48.820;9.248;2023-10-31T11:10:44;2.78;;;0.90;;
15246;SDS011;7726;48.820;9.248;2023-10-31T11:13:12;4.70;;;1.10;;
15246;SDS011;7726;48.820;9.248;2023-10-31T11:15:41;2.92;;;1.15;;
15246;SDS011;7726;48.820;9.248;2023-10-31T11:18:09;2.50;;;0.90;;
15246;SDS011;7726;48.820;9.248;2023-10-31T11:20:36;3.30;;;1.50;;
15246;SDS011;7726;48.820;9.248;2023-10-31T11:23:04;3.47;;;1.38;;
15246;SDS011;7726;48.820;9.248;2023-10-31T11:25:31;2.85;;;0.90;;
15246;SDS011;7726;48.820;9.248;2023-10-31T11:28:10;6.32;;;1.00;;
15246;SDS011;7726;48.820;9.248;2023-10-31T11:30:37;2.20;;;1.10;;
15246;SDS011;7726;48.820;9.248;2023-10-31T11:33:06;5.68;;;1.45;;
15246;SDS011;7726;48.820;9.248;2023-10-31T11:35:38;1.10;;;1.00;;
15246;SDS011;7726;48.820;9.248;2023-10-31T11:38:06;2.13;;;0.90;;
15246;SDS011;7726;48.820;9.248;2023-10-31T11:40:33;1.33;;;0.80;;
15246;SDS011;7726;48.820;9.248;2023-10-31T11:43:02;1.65;;;0.90;;
15246;SDS011;7726;48.820;9.248;2023-10-31T11:45:32;2.97;;;1.20;;
15246;SDS011;7726;48.820;9.248;2023-10-31T11:47:59;2.50;;;1.30;;
15246;SDS011;7726;48.820;9.248;2023-10-31T11:50:27;1.45;;;0.90;;
15246;SDS011;7726;48.820;9.248;2023-10-31T11:53:02;2.67;;;1.08;;
15246;SDS011;7726;48.820;9.248;2023-10-31T11:55:31;4.13;;;1.40;;
15246;SDS011;7726;48.820;9.248;2023-10-31T11:58:12;1.88;;;1.40;;
15246;SDS011;7726;48.820;9.248;2023-10-31T12:00:39;1.27;;;1.08;;
15246;SDS011;7726;48.820;9.248;2023-10-31T12:03:06;1.33;;;1.10;;
15246;SDS011;7726;48.820;9.248;2023-10-31T12:05:35;3.20;;;1.23;;
15246;SDS011;7726;48.820;9.248;2023-10-31T12:08:02;2.83;;;1.00;;
15246;SDS011;7726;48.820;9.248;2023-10-31T12:10:29;2.40;;;1.33;;
15246;SDS011;7726;48.820;9.248;2023-10-31T12:12:57;4.70;;;1.25;;
15246;SDS011;7726;48.820;9.248;2023-10-31T12:15:24;3.38;;;1.30;;
15246;SDS011;7726;48.820;9.248;2023-10-31T12:17:51;3.55;;;1.58;;
15246;SDS011;7726;48.820;9.248;2023-10-31T12:20:18;2.80;;;1.25;;
15246;SDS011;7726;48.820;9.248;2023-10-31T12:22:47;6.15;;;1.20;;
15246;SDS011;7726;48.820;9.248;2023-10-31T12:25:27;2.40;;;1.20;;
15246;SDS011;7726;48.820;9.248;2023-10-31T12:27:54;6.15;;;1.60;;
15246;SDS011;7726;48.820;9.248;2023-10-31T12:30:22;2.15;;;1.30;;
15246;SDS011;7726;48.820;9.248;2023-10-31T12:32:53;1.88;;;1.25;;
15246;SDS011;7726;48.820;9.248;2023-10-31T12:35:21;4.55;;;1.42;;
15246;SDS011;7726;48.820;9.248;2023-10-31T12:37:50;3.53;;;1.05;;
15246;SDS011;7726;48.820;9.248;2023-10-31T12:40:17;2.17;;;1.10;;
15246;SDS011;7726;48.820;9.248;2023-10-31T12:42:45;1.77;;;1.00;;
15246;SDS011;7726;48.820;9.248;2023-10-31T12:45:12;1.35;;;0.85;;
15246;SDS011;7726;48.820;9.248;2023-10-31T12:47:40;1.92;;;0.98;;
15246;SDS011;7726;48.820;9.248;2023-10-31T12:50:07;1.17;;;0.80;;
15246;SDS011;7726;48.820;9.248;2023-10-31T12:52:48;3.10;;;0.90;;
15246;SDS011;7726;48.820;9.248;2023-10-31T12:55:18;1.25;;;0.95;;
15246;SDS011;7726;48.820;9.248;2023-10-31T12:57:45;2.08;;;0.95;;
15246;SDS011;7726;48.820;9.248;2023-10-31T13:00:13;2.25;;;1.20;;
15246;SDS011;7726;48.820;9.248;2023-10-31T13:02:41;1.77;;;1.10;;
15246;SDS011;7726;48.820;9.248;2023-10-31T13:05:10;5.13;;;1.50;;
15246;SDS011;7726;48.820;9.248;2023-10-31T13:07:38;4.35;;;1.33;;
15246;SDS011;7726;48.820;9.248;2023-10-31T13:10:05;2.63;;;1.00;;
15246;SDS011;7726;48.820;9.248;2023-10-31T13:12:35;1.05;;;0.98;;
15246;SDS011;7726;48.820;9.248;2023-10-31T13:15:03;2.08;;;0.93;;
15246;SDS011;7726;48.820;9.248;2023-10-31T13:17:30;3.50;;;0.80;;
15246;SDS011;7726;48.820;9.248;2023-10-31T13:19:58;0.73;;;0.60;;
15246;SDS011;7726;48.820;9.248;2023-10-31T13:22:25;1.65;;;0.95;;
15246;SDS011;7726;48.820;9.248;2023-10-31T13:24:52;7.15;;;3.47;;
15246;SDS011;7726;48.820;9.248;2023-10-31T13:27:19;2.42;;;2.10;;
15246;SDS011;7726;48.820;9.248;2023-10-31T13:29:48;2.08;;;1.58;;
15246;SDS011;7726;48.820;9.248;2023-10-31T13:32:15;3.15;;;1.60;;
15246;SDS011;7726;48.820;9.248;2023-10-31T13:34:43;2.80;;;1.70;;
15246;SDS011;7726;48.820;9.248;2023-10-31T13:37:10;1.35;;;1.20;;
15246;SDS011;7726;48.820;9.248;2023-10-31T13:39:37;3.58;;;1.90;;
15246;SDS011;7726;48.820;9.248;2023-10-31T13:42:04;2.63;;;1.40;;
15246;SDS011;7726;48.820;9.248;2023-10-31T13:44:31;2.28;;;1.10;;
15246;SDS011;7726;48.820;9.248;2023-10-31T13:47:00;3.60;;;1.75;;
15246;SDS011;7726;48.820;9.248;2023-10-31T13:49:27;4.35;;;1.38;;
15246;SDS011;7726;48.820;9.248;2023-10-31T13:51:54;1.67;;;1.30;;
15246;SDS011;7726;48.820;9.248;2023-10-31T13:54:21;1.42;;;1.23;;
15246;SDS011;7726;48.820;9.248;2023-10-31T13:56:48;1.05;;;0.90;;
15246;SDS011;7726;48.820;9.248;2023-10-31T13:59:16;1.58;;;1.00;;
15246;SDS011;7726;48.820;9.248;2023-10-31T14:01:44;1.30;;;1.20;;
15246;SDS011;7726;48.820;9.248;2023-10-31T14:04:13;1.20;;;1.10;;
15246;SDS011;7726;48.820;9.248;2023-10-31T14:06:40;1.67;;;1.10;;
15246;SDS011;7726;48.820;9.248;2023-10-31T14:09:08;1.85;;;1.02;;
15246;SDS011;7726;48.820;9.248;2023-10-31T14:11:36;1.73;;;0.70;;
15246;SDS011;7726;48.820;9.248;2023-10-31T14:14:03;4.60;;;0.70;;
15246;SDS011;7726;48.820;9.248;2023-10-31T14:16:34;2.90;;;0.85;;
15246;SDS011;7726;48.820;9.248;2023-10-31T14:19:01;1.63;;;0.68;;
15246;SDS011;7726;48.820;9.248;2023-10-31T14:21:30;1.67;;;0.88;;
15246;SDS011;7726;48.820;9.248;2023-10-31T14:23:57;1.17;;;0.77;;
15246;SDS011;7726;48.820;9.248;2023-10-31T14:26:24;1.58;;;1.00;;
15246;SDS011;7726;48.820;9.248;2023-10-31T14:28:51;1.80;;;0.75;;
15246;SDS011;7726;48.820;9.248;2023-10-31T14:31:18;2.97;;;1.00;;
15246;SDS011;7726;48.820;9.248;2023-10-31T14:33:46;3.30;;;0.88;;
15246;SDS011;7726;48.820;9.248;2023-10-31T14:36:13;1.25;;;0.90;;
15246;SDS011;7726;48.820;9.248;2023-10-31T14:38:42;1.63;;;0.88;;
15246;SDS011;7726;48.820;9.248;2023-10-31T14:41:09;1.52;;;0.80;;
15246;SDS011;7726;48.820;9.248;2023-10-31T14:43:36;1.27;;;0.80;;
15246;SDS011;7726;48.820;9.248;2023-10-31T14:46:03;1.05;;;0.90;;
15246;SDS011;7726;48.820;9.248;2023-10-31T14:48:32;0.70;;;0.70;;
15246;SDS011;7726;48.820;9.248;2023-10-31T14:50:59;1.80;;;0.90;;
15246;SDS011;7726;48.820;9.248;2023-10-31T14:53:27;1.85;;;0.90;;
15246;SDS011;7726;48.820;9.248;2023-10-31T14:55:56;2.20;;;0.90;;
15246;SDS011;7726;48.820;9.248;2023-10-31T14:58:23;1.77;;;1.30;;
15246;SDS011;7726;48.820;9.248;2023-10-31T15:00:50;2.05;;;1.00;;
15246;SDS011;7726;48.820;9.248;2023-10-31T15:03:17;1.55;;;1.10;;